createdAt,value
2022-11-29T00:01:25.106Z,101434.03
2022-11-29T00:03:52.491Z,101425.28
2022-11-29T00:06:22.605Z,101428.78
2022-11-29T00:08:52.186Z,101434.09
2022-11-29T00:11:44.216Z,101437.56
2022-11-29T00:14:14.327Z,101438.38
2022-11-29T00:16:43.145Z,101437.50
2022-11-29T00:19:11.492Z,101448.00
2022-11-29T00:21:37.941Z,101452.31
2022-11-29T00:24:04.968Z,101444.44
2022-11-29T00:26:31.433Z,101448.81
2022-11-29T00:28:57.802Z,101438.16
2022-11-29T00:31:27.661Z,101454.06
2022-11-29T00:33:54.086Z,101457.56
2022-11-29T00:36:20.549Z,101453.16
2022-11-29T00:38:46.968Z,101448.78
2022-11-29T00:41:13.970Z,101459.28
2022-11-29T00:43:40.373Z,101452.28
2022-11-29T00:46:07.325Z,101454.03
2022-11-29T00:48:37.151Z,101447.00
2022-11-29T00:51:05.035Z,101452.22
2022-11-29T00:53:32.048Z,101458.34
2022-11-29T00:55:58.543Z,101448.72
2022-11-29T00:58:24.951Z,101447.84
2022-11-29T01:00:53.187Z,101447.84
2022-11-29T01:03:19.828Z,101445.22
2022-11-29T01:05:46.830Z,101456.66
2022-11-29T01:08:14.087Z,101455.72
2022-11-29T01:10:41.170Z,101460.16
2022-11-29T01:13:08.710Z,101463.59
2022-11-29T01:15:35.907Z,101467.06
2022-11-29T01:18:02.636Z,101472.25
2022-11-29T01:20:29.119Z,101475.66
2022-11-29T01:22:55.796Z,101479.97
2022-11-29T01:25:22.224Z,101480.84
2022-11-29T01:27:48.600Z,101480.81
2022-11-29T01:30:15.212Z,101474.66
2022-11-29T01:32:41.692Z,101472.88
2022-11-29T01:35:08.593Z,101474.63
2022-11-29T01:37:35.123Z,101478.28
2022-11-29T01:40:01.875Z,101482.59
2022-11-29T01:42:28.287Z,101471.13
2022-11-29T01:45:23.178Z,101483.44
2022-11-29T01:47:55.014Z,101486.94
2022-11-29T01:50:21.923Z,101485.16
2022-11-29T01:52:48.807Z,101494.75
2022-11-29T01:55:15.599Z,101489.44
2022-11-29T01:57:43.266Z,101485.84
2022-11-29T02:00:16.048Z,101490.25
2022-11-29T02:03:10.139Z,101486.75
2022-11-29T02:05:40.923Z,101487.59
2022-11-29T02:08:09.713Z,101491.03
2022-11-29T02:10:57.545Z,101493.66
2022-11-29T02:13:39.148Z,101495.41
2022-11-29T02:16:15.952Z,101502.34
2022-11-29T02:19:04.071Z,101501.50
2022-11-29T02:21:44.074Z,101505.88
2022-11-29T02:24:39.643Z,101497.06
2022-11-29T02:27:37.251Z,101500.47
2022-11-29T02:30:18.529Z,101499.53
2022-11-29T02:33:05.920Z,101502.16
2022-11-29T02:36:00.323Z,101501.28
2022-11-29T02:39:11.498Z,101509.97
2022-11-29T02:42:22.134Z,101503.84
2022-11-29T02:45:06.346Z,101507.28
2022-11-29T02:47:42.466Z,101512.59
2022-11-29T02:50:44.920Z,101507.34
2022-11-29T02:53:25.914Z,101528.34
2022-11-29T02:56:04.252Z,101516.09
2022-11-29T02:59:06.079Z,101523.97
2022-11-29T03:01:35.170Z,101530.09
2022-11-29T03:04:23.509Z,101538.91
2022-11-29T03:07:19.063Z,101538.94
2022-11-29T03:10:11.619Z,101545.03
2022-11-29T03:12:40.260Z,101540.63
2022-11-29T03:15:09.361Z,101548.38
2022-11-29T03:17:57.645Z,101547.50
2022-11-29T03:20:45.500Z,101550.16
2022-11-29T03:23:21.830Z,101557.19
2022-11-29T03:25:57.260Z,101551.91
2022-11-29T03:28:37.357Z,101561.44
2022-11-29T03:31:14.102Z,101556.94
2022-11-29T03:33:48.358Z,101563.09
2022-11-29T03:36:27.701Z,101557.81
2022-11-29T03:39:00.491Z,101563.94
2022-11-29T03:41:41.275Z,101570.06
2022-11-29T03:44:24.054Z,101570.97
2022-11-29T03:46:58.366Z,101577.94
2022-11-29T03:49:33.044Z,101581.50
2022-11-29T03:52:20.628Z,101578.00
2022-11-29T03:55:05.187Z,101584.06
2022-11-29T03:57:57.076Z,101588.44
2022-11-29T04:00:23.742Z,101582.25
2022-11-29T04:03:07.764Z,101583.06
2022-11-29T04:05:42.258Z,101587.50
2022-11-29T04:08:35.035Z,101592.56
2022-11-29T04:11:58.677Z,101593.56
2022-11-29T04:14:33.778Z,101593.56
2022-11-29T04:17:15.366Z,101592.69
2022-11-29T04:20:04.873Z,101599.75
2022-11-29T04:22:33.913Z,101610.25
2022-11-29T04:25:44.304Z,101600.69
2022-11-29T04:28:25.555Z,101608.41
2022-11-29T04:31:07.144Z,101604.84
2022-11-29T04:34:18.550Z,101602.25
2022-11-29T04:37:07.784Z,101597.78
2022-11-29T04:39:49.064Z,101610.03
2022-11-29T04:42:46.073Z,101611.84
2022-11-29T04:45:34.763Z,101618.78
2022-11-29T04:48:06.899Z,101624.03
2022-11-29T04:50:42.755Z,101621.47
2022-11-29T04:53:32.521Z,101628.47
2022-11-29T04:56:15.046Z,101625.84
2022-11-29T04:59:02.211Z,101632.03
2022-11-29T05:02:11.256Z,101630.22
2022-11-29T05:05:03.220Z,101632.78
2022-11-29T05:07:50.053Z,101642.38
2022-11-29T05:10:41.720Z,101640.69
2022-11-29T05:13:32.659Z,101638.97
2022-11-29T05:16:22.880Z,101645.19
2022-11-29T05:19:17.220Z,101644.34
2022-11-29T05:22:20.170Z,101658.34
2022-11-29T05:24:56.033Z,101650.44
2022-11-29T05:27:45.171Z,101653.06
2022-11-29T05:30:13.378Z,101660.94
2022-11-29T05:33:21.836Z,101652.22
2022-11-29T05:36:18.988Z,101655.69
2022-11-29T05:39:10.267Z,101663.69
2022-11-29T05:41:55.429Z,101667.13
2022-11-29T05:44:31.593Z,101673.25
2022-11-29T05:47:03.045Z,101674.13
2022-11-29T05:49:39.549Z,101677.63
2022-11-29T05:52:20.212Z,101679.31
2022-11-29T05:55:03.408Z,101686.38
2022-11-29T05:57:56.993Z,101689.78
2022-11-29T06:00:24.582Z,101684.50
2022-11-29T06:03:06.154Z,101693.25
2022-11-29T06:05:42.226Z,101695.88
2022-11-29T06:08:19.400Z,101701.13
2022-11-29T06:11:13.863Z,101695.03
2022-11-29T06:14:00.647Z,101698.41
2022-11-29T06:16:36.453Z,101698.47
2022-11-29T06:19:23.960Z,101693.19
2022-11-29T06:22:00.107Z,101707.16
2022-11-29T06:25:11.579Z,101704.53
2022-11-29T06:27:59.066Z,101708.97
2022-11-29T06:30:32.078Z,101710.72
2022-11-29T06:33:21.453Z,101712.47
2022-11-29T06:36:23.085Z,101711.63
2022-11-29T06:38:49.767Z,101711.53
2022-11-29T06:41:22.410Z,101721.09
2022-11-29T06:43:49.637Z,101720.22
2022-11-29T06:46:25.321Z,101723.69
2022-11-29T06:49:02.086Z,101730.69
2022-11-29T06:51:35.544Z,101734.22
2022-11-29T06:54:28.855Z,101742.94
2022-11-29T06:57:05.987Z,101748.09
2022-11-29T06:59:51.213Z,101755.91
2022-11-29T07:02:43.283Z,101762.81
2022-11-29T07:05:29.117Z,101770.63
2022-11-29T07:08:00.688Z,101770.63
2022-11-29T07:10:31.220Z,101773.19
2022-11-29T07:12:57.849Z,101771.44
2022-11-29T07:15:24.914Z,101774.03
2022-11-29T07:18:14.136Z,101779.22
2022-11-29T07:21:01.817Z,101765.88
2022-11-29T07:23:33.392Z,101787.78
2022-11-29T07:26:08.600Z,101790.34
2022-11-29T07:28:37.899Z,101795.53
2022-11-29T07:31:29.379Z,101792.13
2022-11-29T07:34:27.188Z,101804.25
2022-11-29T07:37:10.698Z,101805.13
2022-11-29T07:39:51.768Z,101806.81
2022-11-29T07:42:27.117Z,101805.00
2022-11-29T07:45:14.640Z,101817.22
2022-11-29T07:47:40.966Z,101816.34
2022-11-29T07:50:08.012Z,101822.47
2022-11-29T07:52:34.537Z,101825.94
2022-11-29T07:55:03.158Z,101832.94
2022-11-29T07:57:29.518Z,101834.69
2022-11-29T07:59:56.006Z,101832.00
2022-11-29T08:02:29.849Z,101838.09
2022-11-29T08:04:56.644Z,101834.63
2022-11-29T08:07:23.473Z,101834.56
2022-11-29T08:09:49.911Z,101837.25
2022-11-29T08:12:17.966Z,101830.97
2022-11-29T08:14:44.664Z,101837.97
2022-11-29T08:17:11.280Z,101842.41
2022-11-29T08:19:40.638Z,101846.75
2022-11-29T08:22:07.021Z,101846.78
2022-11-29T08:24:33.443Z,101855.34
2022-11-29T08:26:59.792Z,101854.38
2022-11-29T08:29:26.339Z,101856.91
2022-11-29T08:31:53.807Z,101853.44
2022-11-29T08:34:21.549Z,101862.16
2022-11-29T08:36:48.987Z,101860.28
2022-11-29T08:39:15.603Z,101862.81
2022-11-29T08:41:44.917Z,101861.94
2022-11-29T08:44:11.340Z,101866.31
2022-11-29T08:46:56.651Z,101861.94
2022-11-29T08:49:23.078Z,101866.31
2022-11-29T08:51:52.856Z,101868.03
2022-11-29T08:54:19.254Z,101857.41
2022-11-29T08:59:32.196Z,101868.88
2022-11-29T09:01:58.769Z,101867.97
2022-11-29T09:04:25.184Z,101868.75
2022-11-29T09:06:51.547Z,101871.31
2022-11-29T09:09:18.112Z,101875.59
2022-11-29T09:11:48.233Z,101877.34
2022-11-29T09:14:18.116Z,101887.88
2022-11-29T09:16:44.681Z,101879.97
2022-11-29T09:19:14.211Z,101882.66
2022-11-29T09:21:40.587Z,101891.47
2022-11-29T09:24:07.112Z,101886.16
2022-11-29T09:26:36.032Z,101895.69
2022-11-29T09:29:05.037Z,101898.38
2022-11-29T09:31:32.748Z,101899.28
2022-11-29T09:33:59.740Z,101898.47
2022-11-29T09:36:29.225Z,101902.03
2022-11-29T09:38:57.043Z,101900.22
2022-11-29T09:41:48.391Z,101907.19
2022-11-29T09:44:31.572Z,101913.28
2022-11-29T09:47:27.275Z,101912.50
2022-11-29T09:50:16.408Z,101916.88
2022-11-29T09:52:51.548Z,101923.91
2022-11-29T09:55:39.147Z,101925.78
2022-11-29T09:58:13.162Z,101928.41
2022-11-29T10:00:48.398Z,101931.19
2022-11-29T10:03:29.347Z,101933.03
2022-11-29T10:06:02.207Z,101924.31
2022-11-29T10:08:37.169Z,101933.03
2022-11-29T10:11:19.537Z,101946.13
2022-11-29T10:13:50.408Z,101944.38
2022-11-29T10:16:34.339Z,101941.66
2022-11-29T10:19:07.813Z,101939.75
2022-11-29T10:21:36.846Z,101945.13
2022-11-29T10:24:14.663Z,101939.88
2022-11-29T10:26:41.417Z,101940.78
2022-11-29T10:29:13.479Z,101939.88
2022-11-29T10:31:43.975Z,101947.81
2022-11-29T10:34:18.977Z,101936.47
2022-11-29T10:36:52.188Z,101943.59
2022-11-29T10:39:37.175Z,101935.81
2022-11-29T10:42:32.632Z,101942.97
2022-11-29T10:45:00.045Z,101947.44
2022-11-29T10:47:26.549Z,101945.75
2022-11-29T10:49:53.098Z,101951.00
2022-11-29T10:52:21.954Z,101939.66
2022-11-29T10:54:50.887Z,101930.84
2022-11-29T10:57:21.907Z,101944.97
2022-11-29T11:00:02.120Z,101939.88
2022-11-29T11:02:28.860Z,101936.41
2022-11-29T11:04:55.416Z,101943.53
2022-11-29T11:07:42.160Z,101935.88
2022-11-29T11:10:26.566Z,101937.75
2022-11-29T11:13:18.595Z,101939.59
2022-11-29T11:15:45.328Z,101942.22
2022-11-29T11:18:21.234Z,101942.28
2022-11-29T11:20:57.031Z,101935.34
2022-11-29T11:23:25.742Z,101930.19
2022-11-29T11:26:02.219Z,101932.97
2022-11-29T11:28:34.153Z,101911.91
2022-11-29T11:31:07.854Z,101937.66
2022-11-29T11:33:41.040Z,101943.28
2022-11-29T11:36:19.440Z,101935.66
2022-11-29T11:38:59.441Z,101934.97
2022-11-29T11:41:55.696Z,101942.25
2022-11-29T11:44:52.291Z,101934.47
2022-11-29T11:47:24.147Z,101939.31
2022-11-29T11:50:12.761Z,101936.06
2022-11-29T11:52:41.333Z,101939.53
2022-11-29T11:55:19.097Z,101929.75
2022-11-29T11:57:45.464Z,101938.63
2022-11-29T12:01:03.422Z,101943.91
2022-11-29T12:03:41.769Z,101943.91
2022-11-29T12:06:28.263Z,101953.66
2022-11-29T12:09:09.798Z,101945.78
2022-11-29T12:12:00.183Z,101951.16
2022-11-29T12:14:32.118Z,101953.91
2022-11-29T12:17:08.112Z,101957.25
2022-11-29T12:19:43.888Z,101961.19
2022-11-29T12:22:16.523Z,101958.06
2022-11-29T12:24:54.158Z,101965.38
2022-11-29T12:27:20.643Z,101975.19
2022-11-29T12:29:47.205Z,101965.97
2022-11-29T12:32:27.906Z,101971.34
2022-11-29T12:35:35.105Z,101975.91
2022-11-29T12:38:13.312Z,101973.91
2022-11-29T12:40:58.403Z,101984.47
2022-11-29T12:43:53.264Z,101983.38
2022-11-29T12:46:30.336Z,101992.78
2022-11-29T12:49:12.022Z,102002.13
2022-11-29T12:52:04.848Z,101995.66
2022-11-29T12:54:50.007Z,102007.69
2022-11-29T12:57:54.528Z,102003.81
2022-11-29T13:00:21.488Z,102013.09
2022-11-29T13:03:27.513Z,102000.59
2022-11-29T13:06:12.634Z,101994.19
2022-11-29T13:09:02.388Z,101997.69
2022-11-29T13:11:37.774Z,101997.53
2022-11-29T13:14:42.824Z,102003.69
2022-11-29T13:17:26.956Z,101998.31
2022-11-29T13:19:58.036Z,102006.03
2022-11-29T13:22:45.436Z,102012.16
2022-11-29T13:25:20.751Z,102011.16
2022-11-29T13:28:00.224Z,102013.78
2022-11-29T13:30:26.909Z,102013.84
2022-11-29T13:33:12.122Z,102017.31
2022-11-29T13:35:43.204Z,102013.72
2022-11-29T13:38:19.670Z,102007.50
2022-11-29T13:41:02.228Z,102016.16
2022-11-29T13:43:50.190Z,102007.22
2022-11-29T13:46:56.820Z,102013.31
2022-11-29T13:49:55.282Z,102011.47
2022-11-29T13:52:35.198Z,102008.78
2022-11-29T13:55:05.993Z,102006.03
2022-11-29T14:00:42.362Z,102009.53
2022-11-29T14:03:24.087Z,102014.72
2022-11-29T14:05:50.428Z,102005.09
2022-11-29T14:08:37.699Z,102012.00
2022-11-29T14:11:13.957Z,102013.66
2022-11-29T14:13:58.992Z,102014.50
2022-11-29T14:16:43.735Z,102010.06
2022-11-29T14:19:10.092Z,102010.94
2022-11-29T14:22:07.442Z,102008.38
2022-11-29T14:24:36.850Z,102020.66
2022-11-29T14:27:06.330Z,102017.06
2022-11-29T14:29:48.388Z,102015.31
2022-11-29T14:32:46.356Z,102025.75
2022-11-29T14:35:13.013Z,102021.31
2022-11-29T14:38:14.444Z,102029.13
2022-11-29T14:40:40.799Z,102028.09
2022-11-29T14:43:23.669Z,102027.88
2022-11-29T14:46:29.038Z,102027.88
2022-11-29T14:48:55.924Z,102034.72
2022-11-29T14:51:24.871Z,102029.41
2022-11-29T14:54:04.881Z,102038.06
2022-11-29T14:56:31.114Z,102038.88
2022-11-29T14:59:34.959Z,102033.56
2022-11-29T15:02:14.529Z,102039.59
2022-11-29T15:04:41.550Z,102030.63
2022-11-29T15:07:16.933Z,102033.94
2022-11-29T15:09:44.106Z,102036.47
2022-11-29T15:12:21.461Z,102039.06
2022-11-29T15:15:09.743Z,102043.34
2022-11-29T15:18:00.929Z,102044.03
2022-11-29T15:20:39.529Z,102048.25
2022-11-29T15:23:11.150Z,102048.97
2022-11-29T15:25:47.840Z,102041.00
2022-11-29T15:28:21.625Z,102041.66
2022-11-29T15:30:48.936Z,102051.19
2022-11-29T15:33:24.432Z,102050.06
2022-11-29T15:35:54.253Z,102050.78
2022-11-29T15:38:22.671Z,102052.47
2022-11-29T15:40:54.575Z,102052.41
2022-11-29T15:43:27.012Z,102059.34
2022-11-29T15:45:55.511Z,102059.28
2022-11-29T15:48:27.601Z,102063.59
2022-11-29T15:51:17.951Z,102057.53
2022-11-29T15:53:49.928Z,102066.22
2022-11-29T15:56:33.406Z,102066.13
2022-11-29T15:59:04.490Z,102067.78
2022-11-29T16:01:35.089Z,102075.78
2022-11-29T16:04:02.160Z,102078.41
2022-11-29T16:06:38.603Z,102076.66
2022-11-29T16:09:12.266Z,102075.78
2022-11-29T16:11:39.486Z,102083.69
2022-11-29T16:14:11.938Z,102077.63
2022-11-29T16:16:39.953Z,102081.06
2022-11-29T16:19:16.120Z,102078.44
2022-11-29T16:21:44.128Z,102071.41
2022-11-29T16:24:38.974Z,102074.06
2022-11-29T16:27:07.579Z,102071.44
2022-11-29T16:29:37.087Z,102081.16
2022-11-29T16:32:26.168Z,102075.91
2022-11-29T16:34:53.289Z,102076.91
2022-11-29T16:37:28.865Z,102076.91
2022-11-29T16:40:00.563Z,102076.16
2022-11-29T16:42:31.416Z,102083.22
2022-11-29T16:45:07.000Z,102078.78
2022-11-29T16:48:09.474Z,102078.78
2022-11-29T16:50:35.865Z,102084.13
2022-11-29T16:53:32.449Z,102083.31
2022-11-29T16:55:58.803Z,102077.09
2022-11-29T16:58:25.239Z,102076.25
2022-11-29T17:00:51.617Z,102077.19
2022-11-29T17:03:18.871Z,102067.31
2022-11-29T17:05:45.267Z,102092.16
2022-11-29T17:08:11.737Z,102090.41
2022-11-29T17:10:38.132Z,102095.66
2022-11-29T17:13:04.478Z,102096.66
2022-11-29T17:15:32.206Z,102097.53
2022-11-29T17:17:58.577Z,102097.53
2022-11-29T17:20:24.934Z,102097.56
2022-11-29T17:22:51.268Z,102095.00
2022-11-29T17:25:17.646Z,102092.38
2022-11-29T17:27:44.059Z,102094.16
2022-11-29T17:30:11.434Z,102102.03
2022-11-29T17:32:38.299Z,102092.38
2022-11-29T17:35:05.134Z,102103.78
2022-11-29T17:37:31.835Z,102105.50
2022-11-29T17:39:58.240Z,102107.28
2022-11-29T17:42:24.778Z,102098.50
2022-11-29T17:44:51.186Z,102112.66
2022-11-29T17:47:17.619Z,102106.56
2022-11-29T17:49:44.509Z,102111.00
2022-11-29T17:52:11.177Z,102113.72
2022-11-29T17:54:37.834Z,102116.44
2022-11-29T17:57:04.677Z,102121.69
2022-11-29T17:59:31.074Z,102122.56
2022-11-29T18:01:57.428Z,102119.13
2022-11-29T18:04:23.914Z,102120.94
2022-11-29T18:06:51.966Z,102129.78
2022-11-29T18:09:19.428Z,102127.16
2022-11-29T18:11:49.143Z,102129.81
2022-11-29T18:14:28.207Z,102130.69
2022-11-29T18:16:55.037Z,102135.13
2022-11-29T18:19:23.284Z,102136.78
2022-11-29T18:21:50.290Z,102136.63
2022-11-29T18:24:17.196Z,102147.22
2022-11-29T18:26:43.982Z,102144.59
2022-11-29T18:29:10.843Z,102143.63
2022-11-29T18:31:40.487Z,102144.50
2022-11-29T18:34:12.874Z,102149.75
2022-11-29T18:36:49.732Z,102146.31
2022-11-29T18:39:19.056Z,102151.59
2022-11-29T18:41:49.622Z,102152.47
2022-11-29T18:44:18.178Z,102151.66
2022-11-29T18:46:45.903Z,102142.66
2022-11-29T18:49:14.803Z,102158.75
2022-11-29T18:51:45.763Z,102159.69
2022-11-29T18:54:13.680Z,102160.47
2022-11-29T18:56:41.013Z,102161.38
2022-11-29T18:59:10.777Z,102173.53
2022-11-29T19:01:40.971Z,102171.78
2022-11-29T19:04:09.845Z,102176.09
2022-11-29T19:06:39.726Z,102169.97
2022-11-29T19:09:08.335Z,102169.97
2022-11-29T19:11:34.916Z,102169.03
2022-11-29T19:14:04.777Z,102160.06
2022-11-29T19:16:33.644Z,102179.66
2022-11-29T19:19:01.170Z,102180.53
2022-11-29T19:21:29.497Z,102181.34
2022-11-29T19:23:58.074Z,102168.09
2022-11-29T19:26:26.699Z,102175.22
2022-11-29T19:28:53.758Z,102184.03
2022-11-29T19:31:23.951Z,102177.06
2022-11-29T19:33:53.956Z,102172.69
2022-11-29T19:36:23.320Z,102175.38
2022-11-29T19:38:54.822Z,102181.56
2022-11-29T19:41:32.939Z,102179.78
2022-11-29T19:44:01.178Z,102179.78
2022-11-29T19:46:33.455Z,102178.72
2022-11-29T19:49:03.303Z,102180.47
2022-11-29T19:51:30.241Z,102178.69
2022-11-29T19:54:10.661Z,102190.09
2022-11-29T19:56:38.650Z,102182.16
2022-11-29T19:59:06.665Z,102191.84
2022-11-29T20:01:40.241Z,102187.53
2022-11-29T20:04:07.635Z,102193.59
2022-11-29T20:06:34.648Z,102191.72
2022-11-29T20:09:01.940Z,102194.22
2022-11-29T20:11:29.806Z,102204.69
2022-11-29T20:14:01.079Z,102195.94
2022-11-29T20:16:28.956Z,102200.28
2022-11-29T20:18:56.904Z,102199.34
2022-11-29T20:21:26.228Z,102204.63
2022-11-29T20:24:02.904Z,102193.25
2022-11-29T20:26:33.539Z,102188.94
2022-11-29T20:29:01.739Z,102195.09
2022-11-29T20:31:28.634Z,102192.53
2022-11-29T20:33:58.827Z,102199.53
2022-11-29T20:36:52.999Z,102199.53
2022-11-29T20:40:07.654Z,102200.41
2022-11-29T20:42:52.581Z,102177.41
2022-11-29T20:45:19.270Z,102210.13
2022-11-29T20:48:11.099Z,102203.22
2022-11-29T20:50:38.797Z,102212.84
2022-11-29T20:53:42.086Z,102213.81
2022-11-29T20:56:10.376Z,102220.69
2022-11-29T20:58:37.574Z,102210.19
2022-11-29T21:01:04.914Z,102227.03
2022-11-29T21:03:31.476Z,102222.53
2022-11-29T21:06:01.675Z,102230.56
2022-11-29T21:08:28.309Z,102229.72
2022-11-29T21:11:01.151Z,102229.81
2022-11-29T21:13:27.830Z,102226.38
2022-11-29T21:15:54.517Z,102227.34
2022-11-29T21:18:25.029Z,102234.47
2022-11-29T21:21:06.174Z,102223.03
2022-11-29T21:23:45.159Z,102224.75
2022-11-29T21:26:16.802Z,102228.28
2022-11-29T21:29:04.633Z,102243.09
2022-11-29T21:31:31.360Z,102231.63
2022-11-29T21:33:58.025Z,102237.84
2022-11-29T21:36:24.529Z,102229.00
2022-11-29T21:38:55.065Z,102232.50
2022-11-29T21:41:21.901Z,102230.69
2022-11-29T21:44:06.084Z,102235.13
2022-11-29T21:46:33.794Z,102243.88
2022-11-29T21:49:00.146Z,102234.34
2022-11-29T21:51:26.667Z,102237.97
2022-11-29T21:53:52.972Z,102244.25
2022-11-29T21:56:19.318Z,102244.34
2022-11-29T21:58:45.710Z,102242.63
2022-11-29T22:01:15.129Z,102246.97
2022-11-29T22:03:42.558Z,102240.84
2022-11-29T22:06:16.241Z,102242.63
2022-11-29T22:08:42.572Z,102241.63
2022-11-29T22:11:14.925Z,102246.03
2022-11-29T22:14:02.207Z,102245.16
2022-11-29T22:16:29.951Z,102252.13
2022-11-29T22:18:56.504Z,102251.28
2022-11-29T22:21:25.615Z,102247.84
2022-11-29T22:23:52.513Z,102250.47
2022-11-29T22:26:20.786Z,102249.66
2022-11-29T22:28:47.265Z,102253.13
2022-11-29T22:31:13.681Z,102248.88
2022-11-29T22:33:40.066Z,102248.03
2022-11-29T22:36:09.149Z,102251.53
2022-11-29T22:38:36.084Z,102252.41
2022-11-29T22:41:07.741Z,102253.28
2022-11-29T22:43:35.365Z,102257.66
2022-11-29T22:46:12.976Z,102260.34
2022-11-29T22:48:40.241Z,102264.72
2022-11-29T22:51:08.544Z,102271.72
2022-11-29T22:53:36.359Z,102269.09
2022-11-29T22:56:05.968Z,102266.47
2022-11-29T22:58:32.468Z,102270.72
2022-11-29T23:01:09.510Z,102270.69
2022-11-29T23:03:37.427Z,102273.16
2022-11-29T23:06:09.776Z,102284.44
2022-11-29T23:08:44.125Z,102280.78
2022-11-29T23:11:13.158Z,102283.34
2022-11-29T23:13:41.556Z,102281.53
2022-11-29T23:16:12.558Z,102284.06
2022-11-29T23:18:39.906Z,102288.34
2022-11-29T23:21:12.384Z,102291.75
2022-11-29T23:23:38.942Z,102291.75
2022-11-29T23:26:07.495Z,102297.78
2022-11-29T23:28:35.473Z,102290.72
2022-11-29T23:31:02.219Z,102293.41
2022-11-29T23:33:28.799Z,102295.19
2022-11-29T23:36:03.680Z,102259.63
2022-11-29T23:38:30.694Z,102292.56
2022-11-29T23:40:59.644Z,102289.09
2022-11-29T23:43:29.764Z,102293.44
2022-11-29T23:45:56.647Z,102287.19
2022-11-29T23:48:23.585Z,102282.81
2022-11-29T23:50:50.196Z,102279.13
2022-11-29T23:53:20.952Z,102295.06
2022-11-29T23:55:56.034Z,102296.03
2022-11-29T23:58:22.650Z,102296.03
